Golden Valley, North Dakota
Current Conditions -  °F | °C
As of 2:55 AM on Sunday 23 Nov 2014 (Local Time) from KHZE Reporting Station
Overcast Overcast  
Wind Chill: 29°   Ceiling: 3200
Heat Index: 37°   Visibility: 10mi
Dew Point: 32°   Wind: 13mph
Humidity: 81%   Direction: 240°WSW
Pressure: 29.4"   Gusts: NA
Location:  47.29°N, 102.06°W
Report Text: KHZE 230955Z AUTO 24011KT 10SM OVC032 03/00 A2940 RMK AO2
Loading
Personal Weather Stations






























Interactive Weather Map New forecast layout! Learn more

10-Day Weather Forecast

Advertisements
Track Severe Weather on mobile